Time;durP1;ratioP1;P1;durP2;ratioP2;P2;SDS_P1;SDS_P2;PMS_P1;PMS_P2;Temp;Humidity;BMP_temperature;BMP_pressure;BME280_temperature;BME280_humidity;BME280_pressure;Samples;Min_cycle;Max_cycle;Signal;HPM_P1;HPM_P2
2021/04/28 00:02:06;;;;;;;18.90;15.73;;;1.00;99.90;;;;;;5073447;28;20024;-91
2021/04/28 00:04:32;;;;;;;21.60;17.25;;;1.00;99.90;;;;;;5073584;28;20043;-91
2021/04/28 00:07:02;;;;;;;19.38;15.73;;;1.00;99.90;;;;;;5073400;28;20029;-91
2021/04/28 00:09:28;;;;;;;17.15;14.55;;;1.00;99.90;;;;;;5073313;28;20370;-91
2021/04/28 00:11:53;;;;;;;15.63;12.85;;;1.00;99.90;;;;;;5073250;28;20033;-91
2021/04/28 00:14:20;;;;;;;16.63;12.63;;;1.00;99.90;;;;;;5073530;28;20442;-91
2021/04/28 00:16:45;;;;;;;14.88;12.73;;;0.90;99.90;;;;;;5074626;28;20050;-92
2021/04/28 00:19:11;;;;;;;15.00;12.13;;;0.90;99.90;;;;;;5074678;28;20037;-91
2021/04/28 00:21:37;;;;;;;14.05;12.20;;;0.90;99.90;;;;;;5073701;28;20389;-91
2021/04/28 00:24:03;;;;;;;15.48;12.63;;;0.80;99.90;;;;;;5073143;28;20424;-91
2021/04/28 00:26:29;;;;;;;13.82;10.75;;;0.80;99.90;;;;;;5076483;28;20469;-91
2021/04/28 00:28:55;;;;;;;15.20;11.45;;;0.80;99.90;;;;;;5078082;28;20021;-91
2021/04/28 00:31:21;;;;;;;18.55;15.35;;;0.80;99.90;;;;;;5074918;28;20051;-91
2021/04/28 00:33:48;;;;;;;17.48;13.98;;;0.80;99.90;;;;;;5074313;28;20065;-91
2021/04/28 00:36:14;;;;;;;21.10;16.25;;;0.80;99.90;;;;;;5076106;28;20393;-90
2021/04/28 00:38:40;;;;;;;25.67;17.70;;;0.80;99.90;;;;;;5075244;28;20036;-90
2021/04/28 00:41:09;;;;;;;25.58;18.83;;;0.80;99.90;;;;;;5074186;28;20025;-91
2021/04/28 00:43:36;;;;;;;28.20;19.88;;;0.80;99.90;;;;;;5074447;28;20021;-91
2021/04/28 00:46:03;;;;;;;23.85;17.27;;;0.80;99.90;;;;;;5073452;28;20111;-92
2021/04/28 00:48:29;;;;;;;25.33;17.42;;;0.80;99.90;;;;;;5074472;28;20042;-90
2021/04/28 00:50:55;;;;;;;19.55;15.02;;;0.80;99.90;;;;;;5072976;28;20460;-92
2021/04/28 00:53:24;;;;;;;21.35;15.18;;;0.80;99.90;;;;;;5073093;28;20032;-91
2021/04/28 00:55:51;;;;;;;20.40;14.63;;;0.80;99.90;;;;;;5074188;28;20105;-91
2021/04/28 00:58:20;;;;;;;20.27;14.20;;;0.70;99.90;;;;;;5074239;28;20033;-91
2021/04/28 01:00:46;;;;;;;16.73;13.43;;;0.70;99.90;;;;;;5073008;28;20074;-91
2021/04/28 01:03:12;;;;;;;17.80;13.40;;;0.70;99.90;;;;;;5072543;28;20477;-91
2021/04/28 01:05:38;;;;;;;23.42;15.32;;;0.70;99.90;;;;;;5072658;28;20067;-92
2021/04/28 01:08:05;;;;;;;18.83;14.20;;;0.60;99.90;;;;;;5074257;28;20036;-91
2021/04/28 01:10:34;;;;;;;18.23;14.50;;;0.60;99.90;;;;;;5075115;28;20520;-91
2021/04/28 01:13:00;;;;;;;20.90;15.75;;;0.60;99.90;;;;;;5073533;28;20047;-92
2021/04/28 01:15:30;;;;;;;24.95;16.75;;;0.60;99.90;;;;;;5072239;28;20024;-91
2021/04/28 01:17:57;;;;;;;22.70;16.58;;;0.60;99.90;;;;;;5075336;28;20036;-92
2021/04/28 01:20:25;;;;;;;22.83;16.98;;;0.50;99.90;;;;;;5072417;28;20024;-91
2021/04/28 01:22:52;;;;;;;21.10;15.77;;;0.50;99.90;;;;;;5072331;28;20131;-91
2021/04/28 01:25:21;;;;;;;20.95;15.75;;;0.50;99.90;;;;;;5072432;28;20020;-91
2021/04/28 01:27:59;;;;;;;20.42;14.27;;;0.50;99.90;;;;;;5072549;28;20125;-91
2021/04/28 01:30:29;;;;;;;21.63;14.35;;;0.50;99.90;;;;;;5074030;28;20103;-92
2021/04/28 01:32:56;;;;;;;22.23;15.35;;;0.40;99.90;;;;;;5072083;28;20041;-91
2021/04/28 01:35:26;;;;;;;22.83;17.38;;;0.40;99.90;;;;;;5072490;28;20031;-91
2021/04/28 01:37:52;;;;;;;20.95;14.75;;;0.40;99.90;;;;;;5072635;28;20469;-91
2021/04/28 01:40:19;;;;;;;22.65;15.82;;;0.40;99.90;;;;;;5070955;28;20028;-91
2021/04/28 01:42:48;;;;;;;18.90;13.18;;;0.30;99.90;;;;;;5071057;28;20536;-91
2021/04/28 01:45:15;;;;;;;23.73;17.15;;;0.30;99.90;;;;;;5072171;28;20021;-91
2021/04/28 01:47:41;;;;;;;22.92;16.67;;;0.30;99.90;;;;;;5071319;28;20033;-91
2021/04/28 01:50:12;;;;;;;21.35;15.02;;;0.30;99.90;;;;;;5071256;28;20025;-91
2021/04/28 01:52:42;;;;;;;16.88;13.07;;;0.20;99.90;;;;;;5071037;28;20068;-91
2021/04/28 01:55:08;;;;;;;21.83;16.48;;;0.20;99.90;;;;;;5071163;28;20071;-91
2021/04/28 01:57:35;;;;;;;20.58;16.23;;;0.20;99.90;;;;;;5070789;28;20036;-90
2021/04/28 02:00:04;;;;;;;18.35;14.35;;;0.20;99.90;;;;;;5073740;28;20419;-91
2021/04/28 02:02:30;;;;;;;21.23;15.35;;;0.20;99.90;;;;;;5078591;28;20059;-91
2021/04/28 02:04:56;;;;;;;20.23;15.07;;;0.20;99.90;;;;;;5082438;28;20025;-91
2021/04/28 02:07:22;;;;;;;21.38;14.98;;;0.20;99.90;;;;;;5074956;28;20040;-91
2021/04/28 02:09:49;;;;;;;19.15;14.60;;;0.20;99.90;;;;;;5075091;28;20036;-91
2021/04/28 02:12:15;;;;;;;21.60;15.35;;;0.20;99.90;;;;;;5075330;28;20114;-91
2021/04/28 02:14:41;;;;;;;23.60;17.33;;;0.20;99.90;;;;;;5075665;28;20046;-91
2021/04/28 02:17:08;;;;;;;18.27;12.90;;;0.20;99.90;;;;;;5080784;28;20072;-91
2021/04/28 02:19:38;;;;;;;17.63;13.27;;;0.20;99.90;;;;;;5095299;28;20016;-90
2021/04/28 02:22:04;;;;;;;19.73;14.55;;;0.20;99.90;;;;;;5075889;28;20442;-91
2021/04/28 02:24:30;;;;;;;18.67;13.93;;;0.20;99.90;;;;;;5075693;28;20037;-92
2021/04/28 02:26:58;;;;;;;19.42;13.30;;;0.20;99.90;;;;;;5075874;28;20500;-91
2021/04/28 02:29:24;;;;;;;17.48;12.88;;;0.20;99.90;;;;;;5076069;28;20036;-92
2021/04/28 02:31:50;;;;;;;20.70;14.80;;;0.20;99.90;;;;;;5080906;28;20037;-91
2021/04/28 02:34:16;;;;;;;18.50;14.07;;;0.20;99.90;;;;;;5078889;28;20039;-91
2021/04/28 02:36:45;;;;;;;19.35;14.25;;;0.20;99.90;;;;;;5084979;28;20055;-91
2021/04/28 02:39:23;;;;;;;20.63;14.50;;;0.20;99.90;;;;;;5081446;28;20036;-90
2021/04/28 02:41:50;;;;;;;20.75;14.77;;;0.20;99.90;;;;;;5078570;28;20021;-90
2021/04/28 02:44:18;;;;;;;22.55;15.63;;;0.30;99.90;;;;;;5075812;28;20363;-90
2021/04/28 02:46:46;;;;;;;23.70;16.23;;;0.30;99.90;;;;;;5075727;28;20025;-91
2021/04/28 02:49:13;;;;;;;21.77;15.65;;;0.40;99.90;;;;;;5075701;28;20043;-90
2021/04/28 02:51:40;;;;;;;17.02;13.10;;;0.40;99.90;;;;;;5076402;28;20028;-91
2021/04/28 02:54:07;;;;;;;21.95;16.80;;;0.40;99.90;;;;;;5075035;28;20028;-91
2021/04/28 02:56:34;;;;;;;21.73;15.90;;;0.40;99.90;;;;;;5074610;28;20025;-91
2021/04/28 02:59:01;;;;;;;18.25;13.40;;;0.50;99.90;;;;;;5075035;28;20056;-91
2021/04/28 03:01:27;;;;;;;16.00;11.05;;;0.50;99.90;;;;;;5074335;28;20402;-91
2021/04/28 03:03:55;;;;;;;16.80;13.02;;;0.50;99.90;;;;;;5073889;28;20123;-91
2021/04/28 03:06:21;;;;;;;16.02;12.57;;;0.60;99.90;;;;;;5075557;28;20402;-91
2021/04/28 03:08:47;;;;;;;20.10;14.65;;;0.60;99.90;;;;;;5075556;28;20482;-91
2021/04/28 03:11:14;;;;;;;19.92;15.07;;;0.60;99.90;;;;;;5075965;28;20043;-91
2021/04/28 03:13:41;;;;;;;17.70;14.30;;;0.60;99.90;;;;;;5076067;28;20054;-91
2021/04/28 03:16:08;;;;;;;24.67;15.80;;;0.70;99.90;;;;;;5073796;28;20026;-90
2021/04/28 03:18:36;;;;;;;18.20;14.50;;;0.70;99.90;;;;;;5074537;28;20036;-91
2021/04/28 03:21:04;;;;;;;18.38;14.10;;;0.80;99.90;;;;;;5073150;28;20081;-91
2021/04/28 03:23:30;;;;;;;17.13;13.15;;;0.80;99.90;;;;;;5074756;28;20024;-90
2021/04/28 03:25:56;;;;;;;16.85;11.95;;;0.80;99.90;;;;;;5073795;28;20031;-91
2021/04/28 03:28:22;;;;;;;18.00;15.27;;;0.80;99.90;;;;;;5079104;28;20041;-91
2021/04/28 03:30:47;;;;;;;18.63;14.55;;;0.90;99.90;;;;;;5075832;28;20023;-91
2021/04/28 03:33:13;;;;;;;15.73;12.35;;;0.90;99.90;;;;;;5072847;28;20040;-91
2021/04/28 03:35:39;;;;;;;15.27;12.50;;;1.00;99.90;;;;;;5072891;28;20142;-90
2021/04/28 03:38:05;;;;;;;20.17;15.27;;;1.10;99.90;;;;;;5073299;28;20032;-91
2021/04/28 03:40:31;;;;;;;17.13;12.77;;;1.20;99.90;;;;;;5073529;28;20035;-92
2021/04/28 03:42:57;;;;;;;17.92;12.77;;;1.20;99.90;;;;;;5074284;28;20473;-91
2021/04/28 03:45:23;;;;;;;16.75;12.63;;;1.30;99.90;;;;;;5073326;28;20109;-91
2021/04/28 03:47:49;;;;;;;21.90;15.30;;;1.40;99.90;;;;;;5073812;28;20036;-91
2021/04/28 03:50:15;;;;;;;23.05;17.60;;;1.50;99.90;;;;;;5074459;28;20366;-91
2021/04/28 03:52:41;;;;;;;27.50;19.38;;;1.60;99.90;;;;;;5072205;28;20052;-91
2021/04/28 03:55:08;;;;;;;26.95;19.20;;;1.60;99.90;;;;;;5074689;28;20016;-91
2021/04/28 03:57:34;;;;;;;23.77;18.00;;;1.70;99.90;;;;;;5072826;28;20032;-91
2021/04/28 04:00:00;;;;;;;23.33;17.05;;;1.70;99.90;;;;;;5072416;28;20074;-91
2021/04/28 04:02:26;;;;;;;19.90;15.80;;;1.80;99.90;;;;;;5073851;28;20500;-91
2021/04/28 04:04:52;;;;;;;21.10;17.17;;;1.80;99.90;;;;;;5072040;28;20028;-91
2021/04/28 04:07:18;;;;;;;22.48;18.58;;;1.80;99.90;;;;;;5072645;28;20059;-90
2021/04/28 04:09:44;;;;;;;24.55;18.90;;;1.90;99.90;;;;;;5073647;28;20032;-91
2021/04/28 04:12:10;;;;;;;22.90;17.92;;;2.00;99.90;;;;;;5074666;28;20064;-90
2021/04/28 04:14:35;;;;;;;21.95;18.17;;;2.00;99.90;;;;;;5077927;28;20048;-89
2021/04/28 04:17:01;;;;;;;22.58;18.42;;;2.10;99.90;;;;;;5076078;28;20432;-90
2021/04/28 04:19:27;;;;;;;21.02;17.73;;;2.20;99.90;;;;;;5072554;28;20052;-91
2021/04/28 04:21:53;;;;;;;20.67;17.30;;;2.30;99.90;;;;;;5071600;28;20063;-91
2021/04/28 04:24:19;;;;;;;17.23;14.45;;;2.50;99.90;;;;;;5072033;28;20545;-90
2021/04/28 04:26:44;;;;;;;18.48;15.43;;;2.60;99.90;;;;;;5071794;28;20021;-91
2021/04/28 04:29:10;;;;;;;21.55;17.50;;;2.80;99.90;;;;;;5073008;28;20024;-91
2021/04/28 04:31:36;;;;;;;21.00;17.50;;;2.90;99.90;;;;;;5073862;28;20055;-90
2021/04/28 04:34:02;;;;;;;20.17;17.13;;;3.00;99.90;;;;;;5077242;28;20532;-90
2021/04/28 04:36:28;;;;;;;24.08;19.73;;;3.20;99.90;;;;;;5074585;28;20017;-90
2021/04/28 04:38:53;;;;;;;28.58;21.48;;;3.50;99.90;;;;;;5072321;28;20035;-90
2021/04/28 04:41:20;;;;;;;27.52;22.63;;;3.70;99.90;;;;;;5074634;28;20027;-90
2021/04/28 04:43:45;;;;;;;30.55;24.45;;;3.90;99.90;;;;;;5075228;28;20029;-90
2021/04/28 04:46:11;;;;;;;28.67;23.02;;;4.10;99.90;;;;;;5077174;28;20056;-90
2021/04/28 04:48:37;;;;;;;29.02;22.38;;;4.30;99.90;;;;;;5072981;28;20033;-90
2021/04/28 04:51:03;;;;;;;29.10;23.20;;;4.60;99.90;;;;;;5072486;28;20028;-91
2021/04/28 04:53:29;;;;;;;25.92;20.85;;;4.90;99.90;;;;;;5074687;28;20025;-90
2021/04/28 04:55:55;;;;;;;23.08;18.52;;;5.20;99.90;;;;;;5072427;28;20028;-90
2021/04/28 04:58:20;;;;;;;20.98;17.27;;;5.50;99.90;;;;;;5079395;28;20035;-90
2021/04/28 05:00:46;;;;;;;20.38;17.98;;;5.80;99.90;;;;;;5097427;28;20032;-90
2021/04/28 05:03:12;;;;;;;21.58;18.13;;;6.10;99.90;;;;;;5096827;28;20033;-90
2021/04/28 05:05:38;;;;;;;18.17;15.93;;;6.30;99.90;;;;;;5085981;28;20032;-89
2021/04/28 05:08:04;;;;;;;20.15;17.92;;;6.50;99.90;;;;;;5074696;28;20040;-90
2021/04/28 05:10:30;;;;;;;19.60;17.30;;;6.90;99.90;;;;;;5071595;28;20050;-89
2021/04/28 05:12:59;;;;;;;17.42;15.40;;;7.30;99.90;;;;;;5070493;28;20101;-89
2021/04/28 05:15:25;;;;;;;16.42;14.65;;;7.60;99.90;;;;;;5059037;28;20059;-89
2021/04/28 05:17:55;;;;;;;16.13;14.35;;;7.90;99.90;;;;;;5069502;28;20559;-90
2021/04/28 05:20:21;;;;;;;15.90;14.20;;;8.30;99.90;;;;;;5070092;28;20044;-90
2021/04/28 05:22:47;;;;;;;16.33;14.40;;;8.70;99.90;;;;;;5066386;28;20024;-90
2021/04/28 05:25:13;;;;;;;20.27;16.75;;;9.20;99.90;;;;;;5072369;28;20070;-90
2021/04/28 05:27:39;;;;;;;18.42;13.77;;;9.60;99.90;;;;;;5073036;28;20035;-90
2021/04/28 05:30:06;;;;;;;15.25;13.48;;;9.70;99.90;;;;;;5062170;28;20033;-89
2021/04/28 05:32:33;;;;;;;15.02;13.52;;;9.90;99.90;;;;;;5062548;28;20052;-90
2021/04/28 05:34:58;;;;;;;15.45;13.82;;;10.20;99.90;;;;;;5065475;28;20029;-90
2021/04/28 05:37:24;;;;;;;14.05;12.55;;;10.50;99.90;;;;;;5063132;28;20116;-90
2021/04/28 05:39:50;;;;;;;14.55;12.75;;;10.80;99.90;;;;;;5061059;28;20036;-89
2021/04/28 05:42:16;;;;;;;13.10;11.40;;;11.10;99.90;;;;;;5059269;28;20021;-90
2021/04/28 05:44:43;;;;;;;12.77;11.48;;;11.50;99.90;;;;;;5068744;28;20390;-92
2021/04/28 05:47:09;;;;;;;12.23;10.32;;;11.80;99.90;;;;;;5075117;28;20020;-89
2021/04/28 05:49:35;;;;;;;12.23;10.50;;;12.20;99.90;;;;;;5089616;28;20230;-90
2021/04/28 05:52:01;;;;;;;11.65;10.45;;;12.70;99.90;;;;;;5080119;28;20036;-90
2021/04/28 05:54:28;;;;;;;11.70;10.18;;;13.10;99.90;;;;;;5070640;28;20478;-90
2021/04/28 05:56:55;;;;;;;10.80;9.07;;;13.50;99.90;;;;;;5066542;28;20025;-91
2021/04/28 05:59:21;;;;;;;12.48;10.23;;;13.80;99.90;;;;;;5065020;28;20021;-91
2021/04/28 06:01:47;;;;;;;12.40;10.27;;;14.10;99.90;;;;;;5069292;28;20028;-91
2021/04/28 06:04:13;;;;;;;11.75;10.13;;;14.40;99.90;;;;;;5073019;28;20032;-91
2021/04/28 06:06:39;;;;;;;11.35;9.45;;;14.80;99.90;;;;;;5069281;28;20055;-90
2021/04/28 06:09:05;;;;;;;10.25;8.98;;;15.10;99.90;;;;;;5080178;28;20033;-91
2021/04/28 06:11:31;;;;;;;9.50;8.48;;;15.30;99.90;;;;;;5090315;28;20264;-90
2021/04/28 06:13:57;;;;;;;9.13;7.50;;;15.50;99.90;;;;;;5093242;28;20053;-90
2021/04/28 06:16:24;;;;;;;8.70;6.93;;;15.60;99.90;;;;;;5094217;28;20092;-90
2021/04/28 06:18:51;;;;;;;8.80;7.88;;;15.90;99.90;;;;;;5076385;28;20039;-91
2021/04/28 06:21:16;;;;;;;6.75;6.13;;;16.20;99.90;;;;;;5081031;28;20024;-90
2021/04/28 06:23:42;;;;;;;7.15;6.32;;;16.60;99.90;;;;;;5070024;28;20016;-91
2021/04/28 06:26:08;;;;;;;6.13;5.53;;;17.20;99.90;;;;;;5076846;28;20128;-91
2021/04/28 06:28:35;;;;;;;6.55;5.00;;;17.40;99.90;;;;;;5075339;28;20021;-91
2021/04/28 06:31:01;;;;;;;6.32;4.75;;;17.40;99.90;;;;;;5077693;28;20036;-90
2021/04/28 06:33:27;;;;;;;7.85;5.15;;;17.50;99.90;;;;;;5069358;28;20081;-90
2021/04/28 06:35:53;;;;;;;5.80;5.20;;;17.80;99.90;;;;;;5082781;28;20435;-89
2021/04/28 06:38:19;;;;;;;6.25;5.25;;;18.20;99.90;;;;;;5082692;28;20048;-89
2021/04/28 06:40:45;;;;;;;5.43;4.93;;;18.50;99.90;;;;;;5079294;28;20059;-90
2021/04/28 06:43:11;;;;;;;6.28;4.63;;;18.80;99.90;;;;;;5068557;28;20025;-90
2021/04/28 06:45:37;;;;;;;4.82;4.30;;;18.90;98.70;;;;;;5083745;28;20050;-92
2021/04/28 06:48:04;;;;;;;5.32;4.22;;;19.40;99.80;;;;;;5071334;28;20024;-89
2021/04/28 06:50:30;;;;;;;4.88;4.20;;;19.60;95.50;;;;;;5079618;28;20036;-90
2021/04/28 06:52:56;;;;;;;3.60;3.30;;;19.70;93.10;;;;;;5074075;28;20476;-90
2021/04/28 06:55:22;;;;;;;4.22;3.83;;;19.80;93.90;;;;;;5076301;28;20028;-90
2021/04/28 06:57:57;;;;;;;4.65;3.83;;;20.10;92.10;;;;;;5075943;28;20096;-91
2021/04/28 07:00:32;;;;;;;4.45;3.47;;;20.40;89.80;;;;;;5083006;28;20059;-91
2021/04/28 07:02:58;;;;;;;5.35;3.70;;;20.90;71.70;;;;;;5068717;28;20132;-90
2021/04/28 07:05:25;;;;;;;6.63;3.50;;;21.40;89.50;;;;;;5078550;28;20457;-90
2021/04/28 07:07:52;;;;;;;5.07;3.38;;;21.80;79.80;;;;;;5069897;28;20132;-90
2021/04/28 07:10:18;;;;;;;4.50;3.10;;;21.90;79.80;;;;;;5104221;28;20040;-90
2021/04/28 07:12:44;;;;;;;5.85;2.80;;;22.30;80.50;;;;;;5099382;28;20101;-90
2021/04/28 07:15:11;;;;;;;3.53;3.22;;;22.60;76.40;;;;;;5105623;28;20012;-89
2021/04/28 07:17:36;;;;;;;3.47;2.83;;;22.80;74.20;;;;;;5083655;28;20029;-89
2021/04/28 07:20:08;;;;;;;3.35;2.80;;;23.00;70.20;;;;;;5061703;28;20035;-90
2021/04/28 07:22:35;;;;;;;2.80;2.50;;;23.00;62.90;;;;;;5069969;28;20032;-90
2021/04/28 07:25:02;;;;;;;7.88;5.07;;;23.00;67.50;;;;;;5072762;28;20032;-91
2021/04/28 07:27:34;;;;;;;4.80;3.13;;;23.10;66.00;;;;;;5073683;28;20031;-92
2021/04/28 07:30:00;;;;;;;3.45;2.67;;;23.20;62.20;;;;;;5072872;28;20108;-91
2021/04/28 07:32:26;;;;;;;2.58;2.38;;;23.30;63.70;;;;;;5096191;28;20071;-89
2021/04/28 07:34:52;;;;;;;3.00;2.10;;;23.30;61.10;;;;;;5085298;28;20082;-92
2021/04/28 07:37:20;;;;;;;1.52;1.42;;;23.50;59.70;;;;;;5087546;28;20012;-91
2021/04/28 07:39:46;;;;;;;1.75;1.65;;;23.50;56.00;;;;;;5076296;28;20032;-91
2021/04/28 07:42:12;;;;;;;1.98;1.55;;;23.50;56.30;;;;;;5085875;28;20040;-91
2021/04/28 07:44:45;;;;;;;1.80;1.70;;;23.80;56.70;;;;;;5076445;28;20026;-92
2021/04/28 07:47:13;;;;;;;3.35;2.03;;;24.50;57.30;;;;;;5090082;28;20009;-90
2021/04/28 07:49:39;;;;;;;1.92;1.60;;;25.10;54.10;;;;;;5078107;28;20071;-89
2021/04/28 07:52:06;;;;;;;3.15;2.85;;;25.40;52.80;;;;;;5067980;28;20037;-93
2021/04/28 07:54:32;;;;;;;2.10;2.00;;;25.30;51.80;;;;;;5069163;28;20043;-91
2021/04/28 07:56:59;;;;;;;2.30;2.10;;;25.40;48.90;;;;;;5079821;28;20032;-90
2021/04/28 07:59:25;;;;;;;2.35;1.52;;;25.60;50.60;;;;;;5075657;28;20028;-91
2021/04/28 08:01:54;;;;;;;3.03;1.58;;;25.30;45.30;;;;;;5078478;28;20035;-91
2021/04/28 08:04:20;;;;;;;1.38;1.27;;;24.80;46.90;;;;;;5072914;28;20033;-91
2021/04/28 08:06:50;;;;;;;1.30;1.20;;;24.90;49.40;;;;;;5078044;28;20021;-91
2021/04/28 08:09:16;;;;;;;1.60;1.25;;;25.80;50.40;;;;;;5051049;28;20143;-90
2021/04/28 08:14:15;;;;;;;1.20;1.10;;;25.50;35.80;;;;;;5077653;28;20437;-89
2021/04/28 08:16:41;;;;;;;0.90;0.90;;;23.70;38.30;;;;;;5064491;28;20025;-88
2021/04/28 08:19:07;;;;;;;1.50;1.17;;;22.20;40.90;;;;;;5050175;28;20024;-88
2021/04/28 08:21:33;;;;;;;1.40;1.30;;;21.10;41.30;;;;;;5049235;28;20500;-88
2021/04/28 08:23:59;;;;;;;1.02;1.00;;;20.30;43.20;;;;;;5045545;28;20105;-88
2021/04/28 08:26:24;;;;;;;1.27;0.90;;;20.40;45.70;;;;;;5056258;28;20032;-88
2021/04/28 08:28:50;;;;;;;1.27;1.17;;;21.40;47.10;;;;;;5069627;28;20017;-88
2021/04/28 08:31:18;;;;;;;1.45;1.35;;;22.50;44.90;;;;;;5065478;28;20124;-88
2021/04/28 08:33:45;;;;;;;1.50;1.40;;;23.50;45.40;;;;;;5038497;28;20033;-89
2021/04/28 08:36:11;;;;;;;1.85;1.40;;;24.30;45.00;;;;;;5058436;28;20017;-89
2021/04/28 08:38:38;;;;;;;1.42;1.33;;;25.10;45.30;;;;;;5062644;28;20033;-89
2021/04/28 08:41:06;;;;;;;2.67;1.30;;;26.00;44.20;;;;;;5055208;28;20267;-90
2021/04/28 08:43:32;;;;;;;1.45;1.35;;;26.70;44.60;;;;;;5048200;28;20339;-89
2021/04/28 08:46:02;;;;;;;2.97;1.33;;;27.20;44.60;;;;;;5063436;28;20017;-91
2021/04/28 08:48:29;;;;;;;1.45;1.35;;;27.40;43.70;;;;;;5056423;28;20033;-89
2021/04/28 08:50:55;;;;;;;1.60;1.42;;;27.80;44.10;;;;;;5094225;22;20048;-86
2021/04/28 08:53:23;;;;;;;1.33;1.23;;;27.90;42.80;;;;;;5055732;28;20040;-86
2021/04/28 08:55:49;;;;;;;1.50;1.33;;;28.20;42.80;;;;;;5058113;28;20432;-87
2021/04/28 08:58:16;;;;;;;1.63;1.48;;;28.80;42.70;;;;;;5055890;28;20028;-87
2021/04/28 09:00:42;;;;;;;1.50;1.40;;;29.40;43.00;;;;;;5055956;28;20102;-89
2021/04/28 09:03:07;;;;;;;2.65;1.80;;;29.50;36.70;;;;;;5060515;28;20013;-87
2021/04/28 09:05:35;;;;;;;1.80;1.70;;;28.50;37.60;;;;;;5062390;28;20078;-88
2021/04/28 09:08:07;;;;;;;2.05;1.60;;;28.10;38.20;;;;;;5061104;28;20096;-87
2021/04/28 09:10:33;;;;;;;2.22;1.40;;;27.80;38.70;;;;;;5057533;28;20028;-87
2021/04/28 09:13:01;;;;;;;4.18;3.53;;;28.10;39.80;;;;;;5064142;28;20047;-87
2021/04/28 09:15:43;;;;;;;2.55;1.90;;;28.20;39.50;;;;;;5059296;28;20025;-87
2021/04/28 09:18:13;;;;;;;2.90;2.00;;;28.20;33.30;;;;;;5063698;28;20029;-87
2021/04/28 09:20:49;;;;;;;4.10;3.70;;;27.90;35.60;;;;;;5062319;28;20107;-87
2021/04/28 09:23:17;;;;;;;5.47;4.57;;;27.30;36.20;;;;;;5059857;28;20031;-87
2021/04/28 09:25:44;;;;;;;4.80;4.32;;;26.60;34.50;;;;;;5052206;28;20029;-87
2021/04/28 09:28:24;;;;;;;4.30;3.90;;;26.30;34.10;;;;;;5050401;28;20036;-88
2021/04/28 09:30:55;;;;;;;4.93;4.20;;;26.20;32.90;;;;;;5048816;28;20278;-86
2021/04/28 09:33:21;;;;;;;5.72;3.70;;;26.30;35.20;;;;;;5051283;28;20048;-87
2021/04/28 09:35:59;;;;;;;6.38;3.95;;;26.70;35.30;;;;;;5048846;28;20570;-88
2021/04/28 09:38:24;;;;;;;5.63;4.45;;;26.90;33.20;;;;;;5044951;28;20017;-86
2021/04/28 09:40:55;;;;;;;4.97;3.63;;;26.90;33.70;;;;;;5047284;28;20062;-86
2021/04/28 09:43:21;;;;;;;7.60;4.10;;;27.40;33.60;;;;;;5046355;28;20017;-90
2021/04/28 09:45:51;;;;;;;7.00;4.30;;;27.60;33.00;;;;;;5045947;28;20067;-86
2021/04/28 09:48:23;;;;;;;6.80;4.72;;;28.10;31.50;;;;;;5050805;28;20103;-88
2021/04/28 09:53:30;;;;;;;8.73;4.25;;;27.50;29.00;;;;;;5082401;22;20053;-92
2021/04/28 09:56:15;;;;;;;6.97;4.22;;;26.70;29.00;;;;;;5016669;28;20025;-93
2021/04/28 09:58:52;;;;;;;8.65;4.50;;;26.10;28.90;;;;;;5045002;22;20378;-90
2021/04/28 10:01:38;;;;;;;7.13;4.60;;;26.40;29.80;;;;;;5073758;28;20428;-90
2021/04/28 10:04:07;;;;;;;6.05;3.80;;;26.70;29.30;;;;;;5045778;28;20062;-91
2021/04/28 10:06:59;;;;;;;5.13;3.97;;;26.70;29.20;;;;;;5044319;28;20017;-91
2021/04/28 10:09:34;;;;;;;5.03;3.00;;;26.50;29.50;;;;;;5041091;28;20116;-91
2021/04/28 10:12:14;;;;;;;3.08;2.60;;;26.10;29.00;;;;;;5037659;28;20033;-92
2021/04/28 10:14:41;;;;;;;3.65;1.90;;;25.90;29.40;;;;;;5042660;28;20075;-89
2021/04/28 10:20:41;;;;;;;3.38;1.98;;;25.70;29.60;;;;;;5080039;27;20029;-91
2021/04/28 10:23:15;;;;;;;2.50;2.25;;;26.10;30.30;;;;;;5056744;28;20013;-90
2021/04/28 10:25:43;;;;;;;;;;;26.70;30.30;;;;;;5051524;28;20472;-91
2021/04/28 10:28:13;;;;;;;6.20;3.15;;;26.60;29.70;;;;;;5040711;28;19908;-92
2021/04/28 10:31:19;;;;;;;5.13;3.50;;;26.90;29.40;;;;;;5042625;28;20024;-90
2021/04/28 10:34:16;;;;;;;4.22;3.30;;;27.20;28.10;;;;;;5044247;28;21097;-90
2021/04/28 10:37:03;;;;;;;4.75;3.17;;;26.80;28.30;;;;;;5031494;28;20037;-90
2021/04/28 10:39:50;;;;;;;5.85;4.07;;;26.70;28.60;;;;;;5046177;28;20036;-91
2021/04/28 10:42:36;;;;;;;6.50;3.50;;;26.70;28.20;;;;;;5037889;28;20029;-93
2021/04/28 10:45:05;;;;;;;6.45;3.22;;;26.50;28.00;;;;;;5039880;28;20056;-93
2021/04/28 10:47:38;;;;;;;5.07;3.10;;;25.90;28.00;;;;;;5040568;28;20054;-92
2021/04/28 10:50:15;;;;;;;6.85;2.97;;;25.10;28.20;;;;;;5039033;28;20406;-92
2021/04/28 10:53:07;;;;;;;7.03;2.70;;;24.70;28.40;;;;;;5049305;28;20074;-88
2021/04/28 10:55:58;;;;;;;3.25;2.40;;;24.30;29.10;;;;;;5050591;28;20041;-91
2021/04/28 10:58:30;;;;;;;3.33;2.35;;;24.60;28.70;;;;;;5037806;28;20026;-91
2021/04/28 11:01:38;;;;;;;4.13;2.67;;;25.10;29.40;;;;;;5045170;28;20041;-90
2021/04/28 11:04:21;;;;;;;3.22;2.60;;;25.70;28.20;;;;;;5045654;28;20052;-88
2021/04/28 11:07:15;;;;;;;4.30;2.95;;;26.20;28.30;;;;;;5067007;28;20029;-90
2021/04/28 11:10:09;;;;;;;4.25;2.90;;;26.10;28.60;;;;;;5047072;28;20127;-90
2021/04/28 11:13:15;;;;;;;6.15;3.72;;;26.40;28.70;;;;;;4970843;28;20510;-90
2021/04/28 11:16:07;;;;;;;4.43;2.40;;;26.50;28.40;;;;;;5029367;28;20039;-90
2021/04/28 11:18:58;;;;;;;1.98;1.77;;;26.70;28.00;;;;;;5034307;28;20018;-89
2021/04/28 11:21:24;;;;;;;4.10;2.45;;;27.20;28.50;;;;;;5060606;28;20088;-91
2021/04/28 11:24:12;;;;;;;3.90;2.50;;;27.60;28.80;;;;;;5055741;28;20283;-91
2021/04/28 11:26:44;;;;;;;5.78;2.60;;;28.30;29.00;;;;;;5072871;28;20393;-92
2021/04/28 11:29:14;;;;;;;4.85;2.80;;;28.40;27.90;;;;;;5058345;28;20036;-92
2021/04/28 11:31:57;;;;;;;4.28;2.65;;;28.20;27.30;;;;;;5031502;28;20036;-91
2021/04/28 11:34:35;;;;;;;3.72;3.05;;;28.10;27.30;;;;;;5050742;28;20383;-91
2021/04/28 11:37:02;;;;;;;5.13;2.80;;;27.40;26.50;;;;;;5041359;28;20528;-91
2021/04/28 11:39:39;;;;;;;3.33;2.42;;;26.80;27.90;;;;;;5042304;28;20335;-92
2021/04/28 11:42:08;;;;;;;4.45;2.65;;;26.80;27.70;;;;;;5040675;28;20084;-92
2021/04/28 11:44:36;;;;;;;3.13;2.65;;;26.60;27.50;;;;;;5039746;28;20378;-90
2021/04/28 11:47:20;;;;;;;4.78;2.60;;;26.60;27.50;;;;;;5047145;28;20111;-90
2021/04/28 11:49:50;;;;;;;5.68;3.22;;;26.90;27.40;;;;;;5049258;28;20024;-92
2021/04/28 11:52:18;;;;;;;4.25;2.30;;;26.60;27.00;;;;;;5055098;28;20040;-91
2021/04/28 11:54:45;;;;;;;4.40;2.20;;;26.30;27.60;;;;;;5044313;28;20239;-91
2021/04/28 11:57:12;;;;;;;2.65;2.20;;;26.40;27.70;;;;;;5057851;28;20121;-93
2021/04/28 11:59:38;;;;;;;2.85;2.20;;;26.50;27.90;;;;;;5050430;28;20029;-92
2021/04/28 12:02:07;;;;;;;4.40;2.63;;;26.60;27.60;;;;;;5048777;28;20028;-92
2021/04/28 12:04:33;;;;;;;3.45;2.33;;;26.50;27.40;;;;;;5046669;28;20124;-92
2021/04/28 12:07:00;;;;;;;4.35;2.70;;;26.50;27.50;;;;;;5043840;28;20427;-91
2021/04/28 12:09:46;;;;;;;7.75;3.00;;;26.30;26.40;;;;;;5044766;28;20017;-93
2021/04/28 12:12:14;;;;;;;6.53;3.00;;;26.00;27.10;;;;;;5057312;28;20032;-91
2021/04/28 12:14:52;;;;;;;9.32;3.53;;;25.90;27.00;;;;;;5048860;28;20111;-92
2021/04/28 12:17:25;;;;;;;4.10;2.60;;;25.80;27.30;;;;;;5052051;28;20072;-92
2021/04/28 12:19:56;;;;;;;3.47;2.28;;;25.60;27.00;;;;;;5044270;28;20029;-90
2021/04/28 12:22:33;;;;;;;3.25;2.03;;;25.30;27.50;;;;;;5030088;28;20538;-94
2021/04/28 12:25:03;;;;;;;3.08;2.25;;;25.70;28.00;;;;;;5019340;28;20078;-89
2021/04/28 12:27:37;;;;;;;3.78;2.58;;;25.70;27.10;;;;;;5038226;28;20029;-93
2021/04/28 12:30:14;;;;;;;3.53;2.40;;;25.20;27.30;;;;;;5045141;28;20029;-92
2021/04/28 12:32:49;;;;;;;2.25;2.05;;;25.30;27.50;;;;;;5042016;28;20036;-90
2021/04/28 12:35:21;;;;;;;2.83;2.28;;;25.00;27.60;;;;;;5042955;28;20051;-92
2021/04/28 12:38:12;;;;;;;4.03;2.22;;;24.40;27.30;;;;;;5042768;28;20021;-92
2021/04/28 12:40:44;;;;;;;4.72;2.50;;;24.10;27.70;;;;;;5051221;28;20028;-90
2021/04/28 12:43:14;;;;;;;2.90;2.05;;;24.00;28.10;;;;;;5059468;27;20020;-91
2021/04/28 12:45:43;;;;;;;3.13;2.25;;;24.00;28.10;;;;;;5045429;28;20143;-92
2021/04/28 12:48:23;;;;;;;3.42;2.20;;;24.20;28.10;;;;;;5045018;28;20425;-94
2021/04/28 12:50:50;;;;;;;2.47;2.08;;;24.40;28.30;;;;;;5044199;28;20198;-89
2021/04/28 12:53:22;;;;;;;3.20;2.40;;;24.70;28.00;;;;;;5031601;28;20047;-92
2021/04/28 12:55:52;;;;;;;3.35;2.50;;;25.00;27.80;;;;;;5035252;28;20080;-92
2021/04/28 12:58:28;;;;;;;2.28;2.08;;;24.80;27.50;;;;;;5023504;28;20048;-92
2021/04/28 13:01:24;;;;;;;5.35;2.22;;;24.70;27.80;;;;;;5033100;28;20017;-90